createdAt,value
2022-10-07T00:00:15.334Z,12.40
2022-10-07T00:05:17.248Z,12.40
2022-10-07T00:10:18.882Z,12.40
2022-10-07T00:15:20.899Z,12.50
2022-10-07T00:20:22.548Z,12.30
2022-10-07T00:25:24.259Z,12.80
2022-10-07T00:30:26.059Z,12.30
2022-10-07T00:35:28.033Z,12.30
2022-10-07T00:40:29.711Z,12.40
2022-10-07T00:45:31.874Z,12.80
2022-10-07T00:50:33.763Z,12.50
2022-10-07T01:00:39.325Z,12.30
2022-10-07T01:05:41.074Z,14.00
2022-10-07T01:11:13.886Z,12.40
2022-10-07T01:16:24.884Z,12.40
2022-10-07T01:26:31.437Z,12.30
2022-10-07T01:31:48.030Z,12.30
2022-10-07T01:36:53.188Z,13.50
2022-10-07T01:41:54.955Z,12.40
2022-10-07T01:52:24.050Z,8.70
2022-10-07T01:57:51.738Z,12.50
2022-10-07T02:03:09.917Z,12.60
2022-10-07T02:08:39.261Z,12.60
2022-10-07T02:13:55.793Z,12.60
2022-10-07T02:18:59.354Z,12.60
2022-10-07T02:24:03.875Z,13.40
2022-10-07T02:29:09.860Z,12.60
2022-10-07T02:34:19.545Z,12.60
2022-10-07T02:39:21.900Z,12.80
2022-10-07T02:49:30.275Z,12.70
2022-10-07T02:54:43.044Z,12.70
2022-10-07T02:59:47.213Z,12.70
2022-10-07T03:04:49.329Z,12.70
2022-10-07T03:09:51.386Z,12.70
2022-10-07T03:14:53.788Z,14.50
2022-10-07T03:24:57.580Z,12.90
2022-10-07T03:29:59.307Z,12.90
2022-10-07T03:35:00.992Z,12.80
2022-10-07T03:45:06.584Z,12.80
2022-10-07T03:50:08.814Z,12.70
2022-10-07T03:55:10.750Z,12.80
2022-10-07T04:00:13.276Z,12.80
2022-10-07T04:05:16.489Z,12.90
2022-10-07T04:10:20.256Z,12.90
2022-10-07T04:15:22.291Z,12.90
2022-10-07T04:30:43.673Z,13.00
2022-10-07T04:35:45.359Z,13.00
2022-10-07T04:40:49.949Z,13.00
2022-10-07T04:45:54.643Z,14.10
2022-10-07T04:51:01.470Z,13.00
2022-10-07T04:56:04.210Z,13.00
2022-10-07T05:01:09.399Z,12.90
2022-10-07T05:11:13.791Z,13.00
2022-10-07T05:21:17.707Z,13.10
2022-10-07T05:31:21.943Z,13.00
2022-10-07T05:36:24.003Z,13.70
2022-10-07T06:01:38.472Z,13.20
2022-10-07T06:06:40.315Z,13.20
2022-10-07T06:12:00.670Z,13.30
2022-10-07T06:17:02.459Z,14.50
2022-10-07T06:22:04.609Z,13.40
2022-10-07T06:27:07.540Z,13.60
2022-10-07T06:32:09.244Z,13.70
2022-10-07T06:37:10.930Z,13.80
2022-10-07T06:47:15.327Z,13.90
2022-10-07T06:52:17.023Z,16.20
2022-10-07T06:57:44.233Z,14.00
2022-10-07T07:02:40.466Z,14.00
2022-10-07T07:07:42.598Z,14.50
2022-10-07T07:12:45.098Z,14.30
2022-10-07T07:17:48.533Z,14.40
2022-10-07T07:27:57.874Z,14.60
2022-10-07T07:33:00.283Z,14.90
2022-10-07T07:43:05.592Z,15.10
2022-10-07T07:48:07.947Z,15.70
2022-10-07T07:53:10.120Z,15.60
2022-10-07T07:58:12.075Z,15.70
2022-10-07T08:03:13.924Z,15.80
2022-10-07T08:08:15.624Z,16.20
2022-10-07T08:13:17.317Z,16.60
2022-10-07T08:18:19.499Z,16.80
2022-10-07T08:28:24.761Z,17.80
2022-10-07T08:33:26.547Z,17.70
2022-10-07T08:38:33.279Z,18.30
2022-10-07T08:43:44.118Z,18.70
2022-10-07T08:48:56.054Z,19.20
2022-10-07T08:54:00.911Z,18.90
2022-10-07T08:59:02.558Z,19.50
2022-10-07T09:04:25.671Z,19.50
2022-10-07T09:09:30.315Z,19.60
2022-10-07T09:14:37.572Z,19.90
2022-10-07T09:19:49.196Z,20.20
2022-10-07T09:24:59.340Z,20.50
2022-10-07T09:30:01.320Z,20.10
2022-10-07T09:35:06.005Z,20.10
2022-10-07T09:40:58.744Z,20.20
2022-10-07T09:46:01.750Z,20.20
2022-10-07T09:51:13.772Z,20.40
2022-10-07T09:56:32.686Z,20.70
2022-10-07T10:01:34.454Z,20.70
2022-10-07T10:06:36.242Z,21.00
2022-10-07T10:11:37.934Z,21.20
2022-10-07T10:16:46.293Z,21.00
2022-10-07T10:21:59.094Z,21.00
2022-10-07T10:27:23.647Z,21.10
2022-10-07T10:32:40.953Z,21.40
2022-10-07T10:37:57.946Z,22.10
2022-10-07T10:43:24.741Z,22.10
2022-10-07T10:48:36.875Z,22.90
2022-10-07T10:54:09.289Z,22.90
2022-10-07T10:59:33.843Z,22.40
2022-10-07T11:04:57.461Z,23.10
2022-10-07T11:10:21.908Z,24.20
2022-10-07T11:15:27.118Z,24.80
2022-10-07T11:20:43.751Z,23.90
2022-10-07T11:26:11.106Z,24.80
2022-10-07T11:31:35.685Z,25.50
2022-10-07T11:37:03.970Z,24.80
2022-10-07T11:42:21.724Z,24.80
2022-10-07T11:47:31.530Z,25.30
2022-10-07T11:52:38.691Z,25.30
2022-10-07T11:57:43.842Z,25.90
2022-10-07T12:02:47.419Z,25.50
2022-10-07T12:08:02.469Z,24.70
2022-10-07T12:13:13.445Z,24.60
2022-10-07T12:18:17.835Z,25.50
2022-10-07T12:23:22.442Z,26.80
2022-10-07T12:28:34.580Z,25.10
2022-10-07T12:33:43.693Z,24.90
2022-10-07T12:38:55.939Z,24.80
2022-10-07T12:44:21.815Z,25.50
2022-10-07T12:49:58.520Z,25.90
2022-10-07T12:55:04.160Z,25.80
2022-10-07T13:00:08.071Z,25.80
2022-10-07T13:05:57.902Z,27.30
2022-10-07T13:11:21.500Z,27.00
2022-10-07T13:16:27.398Z,27.30
2022-10-07T13:21:46.376Z,27.70
2022-10-07T13:26:48.234Z,27.20
2022-10-07T13:32:28.012Z,28.00
2022-10-07T13:37:31.533Z,28.20
2022-10-07T13:42:34.061Z,27.50
2022-10-07T13:47:36.268Z,27.90
2022-10-07T13:52:44.408Z,27.50
2022-10-07T13:57:46.535Z,28.50
2022-10-07T14:02:51.015Z,28.00
2022-10-07T14:07:59.921Z,25.60
2022-10-07T14:13:07.319Z,25.20
2022-10-07T14:18:13.247Z,25.20
2022-10-07T14:23:31.313Z,25.50
2022-10-07T14:28:34.346Z,28.90
2022-10-07T14:34:08.686Z,28.50
2022-10-07T14:39:30.741Z,28.40
2022-10-07T14:44:32.492Z,26.40
2022-10-07T14:49:34.243Z,26.10
2022-10-07T14:54:35.925Z,24.90
2022-10-07T14:59:37.880Z,24.40
2022-10-07T15:04:40.300Z,24.30
2022-10-07T15:09:43.876Z,24.00
2022-10-07T15:14:45.504Z,23.20
2022-10-07T15:19:47.148Z,23.10
2022-10-07T15:24:48.868Z,23.00
2022-10-07T15:29:53.668Z,23.80
2022-10-07T15:34:55.471Z,23.10
2022-10-07T15:39:58.749Z,22.30
2022-10-07T15:45:00.419Z,22.30
2022-10-07T15:50:02.231Z,21.90
2022-10-07T15:55:07.844Z,21.50
2022-10-07T16:00:10.825Z,21.00
2022-10-07T16:05:12.808Z,20.70
2022-10-07T16:10:14.587Z,20.50
2022-10-07T16:15:16.600Z,20.10
2022-10-07T16:20:18.485Z,19.90
2022-10-07T16:25:20.209Z,19.80
2022-10-07T16:30:40.602Z,19.60
2022-10-07T16:35:42.321Z,19.40
2022-10-07T16:40:52.745Z,18.90
2022-10-07T16:45:54.458Z,18.80
2022-10-07T16:50:56.158Z,18.50
2022-10-07T16:56:01.475Z,18.40
2022-10-07T17:01:05.684Z,18.30
2022-10-07T17:06:12.982Z,18.00
2022-10-07T17:11:29.099Z,17.60
2022-10-07T17:16:34.113Z,17.60
2022-10-07T17:21:36.608Z,17.60
2022-10-07T17:26:38.382Z,17.60
2022-10-07T17:31:42.636Z,17.30
2022-10-07T17:41:47.394Z,17.10
2022-10-07T17:46:49.318Z,17.00
2022-10-07T17:51:51.043Z,16.90
2022-10-07T18:01:54.887Z,16.80
2022-10-07T18:06:58.155Z,16.60
2022-10-07T18:12:18.426Z,16.60
2022-10-07T18:17:20.103Z,16.40
2022-10-07T18:22:22.017Z,16.40
2022-10-07T18:48:02.848Z,15.90
2022-10-07T18:53:04.484Z,15.90
2022-10-07T18:58:06.113Z,15.80
2022-10-07T19:03:08.402Z,16.00
2022-10-07T19:08:10.077Z,15.50
2022-10-07T19:13:34.128Z,16.60
2022-10-07T19:18:35.914Z,15.70
2022-10-07T19:23:38.611Z,15.50
2022-10-07T19:28:40.434Z,15.50
2022-10-07T19:33:43.458Z,15.80
2022-10-07T19:38:46.800Z,15.40
2022-10-07T19:48:51.308Z,15.40
2022-10-07T19:53:53.477Z,15.20
2022-10-07T19:59:00.951Z,16.10
2022-10-07T20:04:14.997Z,15.20
2022-10-07T20:09:18.432Z,15.00
2022-10-07T20:14:20.109Z,15.10
2022-10-07T20:19:22.044Z,15.20
2022-10-07T20:24:23.720Z,15.10
2022-10-07T20:29:26.026Z,15.20
2022-10-07T20:34:27.726Z,15.10
2022-10-07T20:39:47.842Z,15.10
2022-10-07T20:44:50.633Z,14.90
2022-10-07T20:49:55.244Z,15.00
2022-10-07T20:54:56.999Z,14.80
2022-10-07T20:59:58.676Z,14.70
2022-10-07T21:05:00.372Z,14.90
2022-10-07T21:10:02.142Z,14.90
2022-10-07T21:15:04.173Z,14.80
2022-10-07T21:20:07.079Z,14.80
2022-10-07T21:25:11.773Z,14.70
2022-10-07T21:30:13.501Z,14.60
2022-10-07T21:35:15.200Z,14.60
2022-10-07T21:40:16.875Z,14.50
2022-10-07T21:50:20.681Z,14.60
2022-10-07T21:55:22.440Z,15.60
2022-10-07T22:00:24.062Z,14.60
2022-10-07T22:05:25.767Z,15.90
2022-10-07T22:10:27.419Z,14.70
2022-10-07T22:15:29.152Z,15.20
2022-10-07T22:20:31.573Z,14.30
2022-10-07T22:30:40.054Z,14.20
2022-10-07T22:35:41.769Z,14.70
2022-10-07T22:40:44.283Z,14.30
2022-10-07T22:45:56.802Z,14.30
2022-10-07T22:51:06.178Z,14.30
2022-10-07T22:56:12.934Z,14.30
2022-10-07T23:01:16.545Z,14.30
2022-10-07T23:06:19.751Z,14.40
2022-10-07T23:11:23.637Z,14.50
2022-10-07T23:16:29.276Z,14.50
2022-10-07T23:21:34.454Z,14.40
2022-10-07T23:26:37.050Z,14.40
2022-10-07T23:31:39.127Z,14.20
2022-10-07T23:36:40.875Z,14.40
2022-10-07T23:41:42.605Z,14.20
2022-10-07T23:51:47.424Z,14.20
2022-10-07T23:56:49.320Z,12.00
